sensor_id;sensor_type;location;lat;lon;timestamp;pressure;altitude;pressure_sealevel;temperature;humidity
70555;BME280;58104;52.744;15.242;2022-09-09T00:01:37;100352.67;;;21.01;58.99
70555;BME280;58104;52.744;15.242;2022-09-09T00:04:03;100351.82;;;20.76;59.79
70555;BME280;58104;52.744;15.242;2022-09-09T00:06:27;100351.65;;;20.76;59.95
70555;BME280;58104;52.744;15.242;2022-09-09T00:08:56;100353.36;;;20.67;60.37
70555;BME280;58104;52.744;15.242;2022-09-09T00:11:20;100355.52;;;20.74;60.46
70555;BME280;58104;52.744;15.242;2022-09-09T00:13:41;100357.34;;;20.82;59.93
70555;BME280;58104;52.744;15.242;2022-09-09T00:16:10;100361.11;;;20.57;60.44
70555;BME280;58104;52.744;15.242;2022-09-09T00:18:41;100361.01;;;20.54;60.64
70555;BME280;58104;52.744;15.242;2022-09-09T00:20:58;100359.34;;;20.66;60.29
70555;BME280;58104;52.744;15.242;2022-09-09T00:23:24;100359.10;;;20.58;60.76
70555;BME280;58104;52.744;15.242;2022-09-09T00:25:51;100354.79;;;20.58;60.58
70555;BME280;58104;52.744;15.242;2022-09-09T00:28:16;100361.49;;;20.28;61.62
70555;BME280;58104;52.744;15.242;2022-09-09T00:30:37;100362.13;;;20.50;61.12
70555;BME280;58104;52.744;15.242;2022-09-09T00:33:09;100369.38;;;20.47;61.07
70555;BME280;58104;52.744;15.242;2022-09-09T00:35:31;100369.41;;;20.34;61.41
70555;BME280;58104;52.744;15.242;2022-09-09T00:37:56;100371.30;;;20.40;61.37
70555;BME280;58104;52.744;15.242;2022-09-09T00:40:24;100371.99;;;20.45;61.17
70555;BME280;58104;52.744;15.242;2022-09-09T00:42:44;100370.18;;;20.18;61.94
70555;BME280;58104;52.744;15.242;2022-09-09T00:45:19;100370.43;;;20.26;61.67
70555;BME280;58104;52.744;15.242;2022-09-09T00:47:40;100371.65;;;20.10;62.04
70555;BME280;58104;52.744;15.242;2022-09-09T00:50:03;100373.98;;;20.33;61.55
70555;BME280;58104;52.744;15.242;2022-09-09T00:52:33;100376.30;;;20.19;61.72
70555;BME280;58104;52.744;15.242;2022-09-09T00:54:57;100377.50;;;20.42;61.41
70555;BME280;58104;52.744;15.242;2022-09-09T00:57:25;100375.75;;;20.31;61.49
70555;BME280;58104;52.744;15.242;2022-09-09T00:59:47;100378.39;;;20.19;61.74
70555;BME280;58104;52.744;15.242;2022-09-09T01:02:14;100378.49;;;20.30;61.61
70555;BME280;58104;52.744;15.242;2022-09-09T01:04:34;100380.55;;;20.33;61.54
70555;BME280;58104;52.744;15.242;2022-09-09T01:07:03;100386.49;;;20.08;62.07
70555;BME280;58104;52.744;15.242;2022-09-09T01:09:27;100390.91;;;20.26;61.83
70555;BME280;58104;52.744;15.242;2022-09-09T01:11:55;100394.49;;;20.23;61.46
70555;BME280;58104;52.744;15.242;2022-09-09T01:14:22;100397.93;;;20.26;61.66
70555;BME280;58104;52.744;15.242;2022-09-09T01:16:40;100399.66;;;20.42;61.35
70555;BME280;58104;52.744;15.242;2022-09-09T01:19:07;100398.61;;;20.51;60.76
70555;BME280;58104;52.744;15.242;2022-09-09T01:21:37;100399.25;;;20.49;60.58
70555;BME280;58104;52.744;15.242;2022-09-09T01:24:06;100395.73;;;20.48;60.75
70555;BME280;58104;52.744;15.242;2022-09-09T01:26:25;100388.46;;;20.63;60.19
70555;BME280;58104;52.744;15.242;2022-09-09T01:28:47;100390.64;;;20.51;60.34
70555;BME280;58104;52.744;15.242;2022-09-09T01:31:15;100388.85;;;20.51;60.53
70555;BME280;58104;52.744;15.242;2022-09-09T01:33:36;100387.00;;;20.38;60.66
70555;BME280;58104;52.744;15.242;2022-09-09T01:36:06;100393.10;;;20.31;61.33
70555;BME280;58104;52.744;15.242;2022-09-09T01:38:28;100397.09;;;19.96;61.95
70555;BME280;58104;52.744;15.242;2022-09-09T01:40:53;100399.94;;;20.27;61.24
70555;BME280;58104;52.744;15.242;2022-09-09T01:43:18;100399.32;;;20.28;61.42
70555;BME280;58104;52.744;15.242;2022-09-09T01:45:43;100403.18;;;20.19;61.45
70555;BME280;58104;52.744;15.242;2022-09-09T01:48:08;100402.03;;;20.24;61.25
70555;BME280;58104;52.744;15.242;2022-09-09T01:50:33;100402.99;;;20.26;61.13
70555;BME280;58104;52.744;15.242;2022-09-09T01:53:00;100400.81;;;20.38;60.87
70555;BME280;58104;52.744;15.242;2022-09-09T01:55:29;100396.08;;;20.33;60.90
70555;BME280;58104;52.744;15.242;2022-09-09T01:57:56;100393.09;;;20.30;60.81
70555;BME280;58104;52.744;15.242;2022-09-09T02:00:15;100396.86;;;20.14;61.25
70555;BME280;58104;52.744;15.242;2022-09-09T02:02:47;100400.20;;;20.28;60.59
70555;BME280;58104;52.744;15.242;2022-09-09T02:05:16;100397.69;;;20.54;60.28
70555;BME280;58104;52.744;15.242;2022-09-09T02:07:38;100394.74;;;20.40;60.45
70555;BME280;58104;52.744;15.242;2022-09-09T02:10:01;100396.24;;;20.42;60.57
70555;BME280;58104;52.744;15.242;2022-09-09T02:12:24;100393.40;;;20.45;60.40
70555;BME280;58104;52.744;15.242;2022-09-09T02:14:49;100393.98;;;20.31;61.00
70555;BME280;58104;52.744;15.242;2022-09-09T02:17:15;100396.05;;;20.17;61.36
70555;BME280;58104;52.744;15.242;2022-09-09T02:19:42;100400.58;;;20.32;60.94
70555;BME280;58104;52.744;15.242;2022-09-09T02:22:03;100403.88;;;20.29;60.94
70555;BME280;58104;52.744;15.242;2022-09-09T02:24:30;100401.39;;;20.25;61.09
70555;BME280;58104;52.744;15.242;2022-09-09T02:26:54;100402.40;;;20.29;60.96
70555;BME280;58104;52.744;15.242;2022-09-09T02:29:20;100403.98;;;20.20;61.15
70555;BME280;58104;52.744;15.242;2022-09-09T02:31:45;100400.22;;;20.19;61.05
70555;BME280;58104;52.744;15.242;2022-09-09T02:34:09;100402.12;;;20.12;60.98
70555;BME280;58104;52.744;15.242;2022-09-09T02:36:34;100400.48;;;20.15;60.91
70555;BME280;58104;52.744;15.242;2022-09-09T02:38:59;100403.38;;;20.16;60.68
70555;BME280;58104;52.744;15.242;2022-09-09T02:41:28;100404.51;;;20.23;60.51
70555;BME280;58104;52.744;15.242;2022-09-09T02:43:49;100404.63;;;20.27;60.46
70555;BME280;58104;52.744;15.242;2022-09-09T02:46:26;100408.03;;;20.12;60.69
70555;BME280;58104;52.744;15.242;2022-09-09T02:48:47;100414.27;;;20.04;60.77
70555;BME280;58104;52.744;15.242;2022-09-09T02:51:09;100413.78;;;19.88;60.95
70555;BME280;58104;52.744;15.242;2022-09-09T02:53:36;100411.79;;;20.08;60.39
70555;BME280;58104;52.744;15.242;2022-09-09T02:56:00;100415.20;;;20.15;60.33
70555;BME280;58104;52.744;15.242;2022-09-09T02:58:22;100420.29;;;20.18;60.26
70555;BME280;58104;52.744;15.242;2022-09-09T03:00:49;100425.99;;;20.10;60.29
70555;BME280;58104;52.744;15.242;2022-09-09T03:03:12;100424.35;;;20.24;60.24
70555;BME280;58104;52.744;15.242;2022-09-09T03:05:38;100427.07;;;20.21;60.47
70555;BME280;58104;52.744;15.242;2022-09-09T03:08:04;100427.09;;;20.34;59.78
70555;BME280;58104;52.744;15.242;2022-09-09T03:10:28;100426.17;;;20.28;59.97
70555;BME280;58104;52.744;15.242;2022-09-09T03:12:54;100426.11;;;20.23;60.08
70555;BME280;58104;52.744;15.242;2022-09-09T03:15:19;100431.29;;;20.16;60.19
70555;BME280;58104;52.744;15.242;2022-09-09T03:17:45;100428.49;;;20.27;59.96
70555;BME280;58104;52.744;15.242;2022-09-09T03:20:11;100427.74;;;20.09;60.12
70555;BME280;58104;52.744;15.242;2022-09-09T03:22:36;100428.33;;;20.28;59.86
70555;BME280;58104;52.744;15.242;2022-09-09T03:25:01;100430.30;;;20.25;59.81
70555;BME280;58104;52.744;15.242;2022-09-09T03:27:26;100434.96;;;20.12;60.26
70555;BME280;58104;52.744;15.242;2022-09-09T03:29:52;100440.51;;;20.09;60.53
70555;BME280;58104;52.744;15.242;2022-09-09T03:32:18;100445.00;;;19.95;60.75
70555;BME280;58104;52.744;15.242;2022-09-09T03:34:43;100445.58;;;20.12;60.26
70555;BME280;58104;52.744;15.242;2022-09-09T03:37:08;100443.96;;;20.13;60.46
70555;BME280;58104;52.744;15.242;2022-09-09T03:39:34;100445.68;;;20.03;60.41
70555;BME280;58104;52.744;15.242;2022-09-09T03:41:59;100444.71;;;20.13;60.22
70555;BME280;58104;52.744;15.242;2022-09-09T03:44:24;100442.93;;;20.07;60.26
70555;BME280;58104;52.744;15.242;2022-09-09T03:46:50;100438.52;;;20.23;59.84
70555;BME280;58104;52.744;15.242;2022-09-09T03:49:15;100441.36;;;20.24;59.77
70555;BME280;58104;52.744;15.242;2022-09-09T03:51:40;100448.36;;;20.11;60.03
70555;BME280;58104;52.744;15.242;2022-09-09T03:54:06;100447.26;;;20.10;60.14
70555;BME280;58104;52.744;15.242;2022-09-09T03:56:31;100442.67;;;20.19;59.54
70555;BME280;58104;52.744;15.242;2022-09-09T03:58:57;100440.53;;;20.18;59.84
70555;BME280;58104;52.744;15.242;2022-09-09T04:01:23;100443.51;;;20.21;59.59
70555;BME280;58104;52.744;15.242;2022-09-09T04:03:48;100442.19;;;20.23;59.41
70555;BME280;58104;52.744;15.242;2022-09-09T04:06:14;100444.08;;;20.19;59.52
70555;BME280;58104;52.744;15.242;2022-09-09T04:08:39;100442.73;;;20.21;59.56
70555;BME280;58104;52.744;15.242;2022-09-09T04:11:05;100444.49;;;20.20;59.49
70555;BME280;58104;52.744;15.242;2022-09-09T04:13:29;100445.60;;;20.19;59.31
70555;BME280;58104;52.744;15.242;2022-09-09T04:15:56;100447.81;;;20.29;59.08
70555;BME280;58104;52.744;15.242;2022-09-09T04:18:20;100450.62;;;20.15;59.32
70555;BME280;58104;52.744;15.242;2022-09-09T04:20:46;100453.45;;;20.09;59.62
70555;BME280;58104;52.744;15.242;2022-09-09T04:23:10;100457.00;;;20.05;59.23
70555;BME280;58104;52.744;15.242;2022-09-09T04:25:35;100458.14;;;20.16;59.25
70555;BME280;58104;52.744;15.242;2022-09-09T04:28:01;100459.61;;;20.23;58.88
70555;BME280;58104;52.744;15.242;2022-09-09T04:30:26;100461.35;;;20.20;59.19
70555;BME280;58104;52.744;15.242;2022-09-09T04:32:51;100464.79;;;20.08;59.34
70555;BME280;58104;52.744;15.242;2022-09-09T04:35:17;100464.88;;;20.29;58.97
70555;BME280;58104;52.744;15.242;2022-09-09T04:37:42;100467.01;;;20.25;59.10
70555;BME280;58104;52.744;15.242;2022-09-09T04:40:08;100467.29;;;20.32;58.84
70555;BME280;58104;52.744;15.242;2022-09-09T04:42:35;100466.19;;;20.29;58.78
70555;BME280;58104;52.744;15.242;2022-09-09T04:44:58;100471.45;;;20.17;59.16
70555;BME280;58104;52.744;15.242;2022-09-09T04:47:23;100471.16;;;20.13;59.35
70555;BME280;58104;52.744;15.242;2022-09-09T04:49:49;100472.18;;;20.04;59.49
70555;BME280;58104;52.744;15.242;2022-09-09T04:52:14;100473.27;;;20.11;59.35
70555;BME280;58104;52.744;15.242;2022-09-09T04:54:40;100471.30;;;20.06;59.40
70555;BME280;58104;52.744;15.242;2022-09-09T04:57:05;100474.38;;;19.90;59.70
70555;BME280;58104;52.744;15.242;2022-09-09T04:59:30;100472.02;;;19.67;60.26
70555;BME280;58104;52.744;15.242;2022-09-09T05:01:55;100476.44;;;19.76;60.16
70555;BME280;58104;52.744;15.242;2022-09-09T05:04:20;100478.63;;;19.60;60.39
70555;BME280;58104;52.744;15.242;2022-09-09T05:06:46;100483.73;;;19.62;60.41
70555;BME280;58104;52.744;15.242;2022-09-09T05:09:11;100481.05;;;19.76;60.12
70555;BME280;58104;52.744;15.242;2022-09-09T05:11:37;100481.76;;;19.73;60.08
70555;BME280;58104;52.744;15.242;2022-09-09T05:14:02;100485.10;;;19.85;59.76
70555;BME280;58104;52.744;15.242;2022-09-09T05:16:27;100482.35;;;19.73;60.05
70555;BME280;58104;52.744;15.242;2022-09-09T05:18:52;100482.38;;;19.60;59.86
70555;BME280;58104;52.744;15.242;2022-09-09T05:21:19;100482.92;;;19.81;59.69
70555;BME280;58104;52.744;15.242;2022-09-09T05:23:49;100490.79;;;19.30;60.06
70555;BME280;58104;52.744;15.242;2022-09-09T05:26:12;100493.96;;;19.56;59.91
70555;BME280;58104;52.744;15.242;2022-09-09T05:28:34;100491.87;;;19.65;59.93
70555;BME280;58104;52.744;15.242;2022-09-09T05:31:00;100493.78;;;19.60;60.26
70555;BME280;58104;52.744;15.242;2022-09-09T05:33:24;100496.66;;;19.45;60.46
70555;BME280;58104;52.744;15.242;2022-09-09T05:35:55;100490.85;;;19.68;60.14
70555;BME280;58104;52.744;15.242;2022-09-09T05:38:14;100487.82;;;19.49;60.43
70555;BME280;58104;52.744;15.242;2022-09-09T05:40:46;100488.44;;;19.71;59.93
70555;BME280;58104;52.744;15.242;2022-09-09T05:43:05;100493.41;;;19.55;60.02
70555;BME280;58104;52.744;15.242;2022-09-09T05:45:30;100494.85;;;19.70;59.92
70555;BME280;58104;52.744;15.242;2022-09-09T05:47:56;100495.83;;;19.72;59.61
70555;BME280;58104;52.744;15.242;2022-09-09T05:50:21;100494.27;;;19.65;59.52
70555;BME280;58104;52.744;15.242;2022-09-09T05:52:46;100496.08;;;19.82;59.15
70555;BME280;58104;52.744;15.242;2022-09-09T05:55:12;100494.00;;;19.85;59.27
70555;BME280;58104;52.744;15.242;2022-09-09T05:57:37;100497.26;;;19.83;58.89
70555;BME280;58104;52.744;15.242;2022-09-09T06:00:03;100496.61;;;19.89;58.91
70555;BME280;58104;52.744;15.242;2022-09-09T06:02:28;100494.96;;;19.99;58.80
70555;BME280;58104;52.744;15.242;2022-09-09T06:04:53;100496.88;;;19.89;58.85
70555;BME280;58104;52.744;15.242;2022-09-09T06:07:19;100498.07;;;19.89;58.98
70555;BME280;58104;52.744;15.242;2022-09-09T06:09:44;100498.49;;;19.89;59.24
70555;BME280;58104;52.744;15.242;2022-09-09T06:12:09;100497.87;;;19.92;58.96
70555;BME280;58104;52.744;15.242;2022-09-09T06:14:34;100497.76;;;19.86;58.46
70555;BME280;58104;52.744;15.242;2022-09-09T06:17:00;100499.62;;;20.01;58.31
70555;BME280;58104;52.744;15.242;2022-09-09T06:19:25;100504.75;;;19.93;58.72
70555;BME280;58104;52.744;15.242;2022-09-09T06:21:51;100506.44;;;19.77;59.10
70555;BME280;58104;52.744;15.242;2022-09-09T06:24:16;100506.80;;;20.02;58.66
70555;BME280;58104;52.744;15.242;2022-09-09T06:26:41;100503.42;;;20.11;57.99
70555;BME280;58104;52.744;15.242;2022-09-09T06:29:08;100504.70;;;20.08;58.17
70555;BME280;58104;52.744;15.242;2022-09-09T06:31:33;100510.13;;;20.18;57.92
70555;BME280;58104;52.744;15.242;2022-09-09T06:33:58;100512.59;;;20.26;57.92
70555;BME280;58104;52.744;15.242;2022-09-09T06:36:25;100511.55;;;20.26;57.66
70555;BME280;58104;52.744;15.242;2022-09-09T06:38:48;100516.10;;;20.39;57.28
70555;BME280;58104;52.744;15.242;2022-09-09T06:41:15;100520.88;;;20.31;57.32
70555;BME280;58104;52.744;15.242;2022-09-09T06:43:39;100517.58;;;20.42;57.17
70555;BME280;58104;52.744;15.242;2022-09-09T06:46:08;100514.94;;;20.41;57.29
70555;BME280;58104;52.744;15.242;2022-09-09T06:48:30;100514.79;;;20.35;57.75
70555;BME280;58104;52.744;15.242;2022-09-09T06:51:00;100518.24;;;20.46;57.22
70555;BME280;58104;52.744;15.242;2022-09-09T06:53:20;100517.06;;;20.52;56.94
70555;BME280;58104;52.744;15.242;2022-09-09T06:55:46;100513.08;;;20.72;56.67
70555;BME280;58104;52.744;15.242;2022-09-09T06:58:12;100513.82;;;20.89;56.02
70555;BME280;58104;52.744;15.242;2022-09-09T07:00:37;100517.37;;;21.07;55.72
70555;BME280;58104;52.744;15.242;2022-09-09T07:03:02;100518.53;;;21.31;54.88
70555;BME280;58104;52.744;15.242;2022-09-09T07:05:28;100516.98;;;21.28;54.91
70555;BME280;58104;52.744;15.242;2022-09-09T07:07:53;100513.94;;;21.44;54.58
70555;BME280;58104;52.744;15.242;2022-09-09T07:10:18;100515.61;;;21.50;54.73
70555;BME280;58104;52.744;15.242;2022-09-09T07:12:43;100519.83;;;21.72;53.85
70555;BME280;58104;52.744;15.242;2022-09-09T07:15:09;100521.44;;;21.83;53.77
70555;BME280;58104;52.744;15.242;2022-09-09T07:17:34;100522.67;;;21.96;53.34
70555;BME280;58104;52.744;15.242;2022-09-09T07:20:00;100525.63;;;22.08;52.96
70555;BME280;58104;52.744;15.242;2022-09-09T07:22:25;100528.47;;;22.06;52.85
70555;BME280;58104;52.744;15.242;2022-09-09T07:24:50;100524.91;;;22.06;52.75
70555;BME280;58104;52.744;15.242;2022-09-09T07:27:16;100529.88;;;21.91;52.89
70555;BME280;58104;52.744;15.242;2022-09-09T07:29:41;100523.15;;;21.81;53.31
70555;BME280;58104;52.744;15.242;2022-09-09T07:32:06;100521.14;;;21.74;53.36
70555;BME280;58104;52.744;15.242;2022-09-09T07:34:31;100527.12;;;21.82;53.02
70555;BME280;58104;52.744;15.242;2022-09-09T07:36:56;100529.35;;;22.09;52.59
70555;BME280;58104;52.744;15.242;2022-09-09T07:39:22;100530.35;;;22.19;52.39
70555;BME280;58104;52.744;15.242;2022-09-09T07:41:48;100531.21;;;22.25;51.87
70555;BME280;58104;52.744;15.242;2022-09-09T07:44:14;100533.45;;;22.33;51.68
70555;BME280;58104;52.744;15.242;2022-09-09T07:46:38;100535.87;;;22.36;51.99
70555;BME280;58104;52.744;15.242;2022-09-09T07:49:03;100536.09;;;22.47;51.55
70555;BME280;58104;52.744;15.242;2022-09-09T07:51:31;100538.66;;;22.42;51.76
70555;BME280;58104;52.744;15.242;2022-09-09T07:53:56;100539.59;;;22.41;51.71
70555;BME280;58104;52.744;15.242;2022-09-09T07:56:20;100542.39;;;22.58;51.53
70555;BME280;58104;52.744;15.242;2022-09-09T07:58:46;100536.72;;;22.62;51.32
70555;BME280;58104;52.744;15.242;2022-09-09T08:01:12;100533.52;;;22.92;50.47
70555;BME280;58104;52.744;15.242;2022-09-09T08:03:35;100540.73;;;22.87;50.78
70555;BME280;58104;52.744;15.242;2022-09-09T08:06:01;100537.62;;;23.06;50.28
70555;BME280;58104;52.744;15.242;2022-09-09T08:08:25;100541.27;;;23.00;50.48
70555;BME280;58104;52.744;15.242;2022-09-09T08:10:51;100533.53;;;23.02;50.20
70555;BME280;58104;52.744;15.242;2022-09-09T08:13:16;100531.79;;;23.27;49.89
70555;BME280;58104;52.744;15.242;2022-09-09T08:15:41;100536.25;;;23.39;49.43
70555;BME280;58104;52.744;15.242;2022-09-09T08:18:07;100539.63;;;23.31;49.51
70555;BME280;58104;52.744;15.242;2022-09-09T08:20:32;100540.15;;;23.58;49.08
70555;BME280;58104;52.744;15.242;2022-09-09T08:22:57;100542.49;;;23.57;49.28
70555;BME280;58104;52.744;15.242;2022-09-09T08:25:23;100540.17;;;23.47;49.36
70555;BME280;58104;52.744;15.242;2022-09-09T08:27:48;100538.84;;;23.46;49.44
70555;BME280;58104;52.744;15.242;2022-09-09T08:30:13;100539.48;;;23.55;49.32
70555;BME280;58104;52.744;15.242;2022-09-09T08:32:38;100544.73;;;23.64;48.84
70555;BME280;58104;52.744;15.242;2022-09-09T08:35:04;100548.62;;;23.74;48.74
70555;BME280;58104;52.744;15.242;2022-09-09T08:37:29;100549.22;;;23.83;48.67
70555;BME280;58104;52.744;15.242;2022-09-09T08:39:54;100551.06;;;23.83;48.59
70555;BME280;58104;52.744;15.242;2022-09-09T08:42:28;100551.43;;;24.10;48.26
70555;BME280;58104;52.744;15.242;2022-09-09T08:44:56;100553.27;;;24.12;47.92
70555;BME280;58104;52.744;15.242;2022-09-09T08:47:15;100552.44;;;24.38;47.66
70555;BME280;58104;52.744;15.242;2022-09-09T08:49:48;100554.00;;;24.33;47.59
70555;BME280;58104;52.744;15.242;2022-09-09T08:52:02;100552.30;;;24.35;47.52
70555;BME280;58104;52.744;15.242;2022-09-09T08:54:28;100552.22;;;24.33;47.24
70555;BME280;58104;52.744;15.242;2022-09-09T08:56:51;100559.04;;;24.42;47.47
70555;BME280;58104;52.744;15.242;2022-09-09T08:59:17;100556.11;;;24.39;47.28
70555;BME280;58104;52.744;15.242;2022-09-09T09:01:47;100557.66;;;24.62;46.89
70555;BME280;58104;52.744;15.242;2022-09-09T09:04:26;100562.09;;;24.71;46.34
70555;BME280;58104;52.744;15.242;2022-09-09T09:06:41;100562.95;;;24.69;46.54
70555;BME280;58104;52.744;15.242;2022-09-09T09:09:02;100569.14;;;24.88;46.03
70555;BME280;58104;52.744;15.242;2022-09-09T09:11:23;100573.17;;;25.19;45.63
70555;BME280;58104;52.744;15.242;2022-09-09T09:13:54;100576.58;;;25.16;46.10
70555;BME280;58104;52.744;15.242;2022-09-09T09:16:21;100574.35;;;25.16;45.96
70555;BME280;58104;52.744;15.242;2022-09-09T09:18:39;100569.76;;;25.00;46.48
70555;BME280;58104;52.744;15.242;2022-09-09T09:21:11;100571.11;;;25.13;46.81
70555;BME280;58104;52.744;15.242;2022-09-09T09:23:36;100566.15;;;25.27;45.15
70555;BME280;58104;52.744;15.242;2022-09-09T09:25:59;100566.29;;;25.32;45.38
70555;BME280;58104;52.744;15.242;2022-09-09T09:28:24;100562.06;;;25.46;44.96
70555;BME280;58104;52.744;15.242;2022-09-09T09:30:49;100562.17;;;25.31;44.80
70555;BME280;58104;52.744;15.242;2022-09-09T09:33:17;100560.07;;;25.39;45.30
70555;BME280;58104;52.744;15.242;2022-09-09T09:35:36;100557.85;;;25.29;45.49
70555;BME280;58104;52.744;15.242;2022-09-09T09:38:10;100557.64;;;25.48;44.27
70555;BME280;58104;52.744;15.242;2022-09-09T09:40:27;100561.14;;;25.55;44.04
70555;BME280;58104;52.744;15.242;2022-09-09T09:42:54;100566.21;;;25.44;44.03
70555;BME280;58104;52.744;15.242;2022-09-09T09:45:26;100565.51;;;25.49;43.93
70555;BME280;58104;52.744;15.242;2022-09-09T09:47:43;100571.40;;;25.37;44.01
70555;BME280;58104;52.744;15.242;2022-09-09T09:50:16;100574.74;;;25.29;43.87
70555;BME280;58104;52.744;15.242;2022-09-09T09:52:33;100576.01;;;25.26;43.71
70555;BME280;58104;52.744;15.242;2022-09-09T09:54:59;100572.56;;;25.75;43.07
70555;BME280;58104;52.744;15.242;2022-09-09T09:57:26;100576.35;;;25.37;43.24
70555;BME280;58104;52.744;15.242;2022-09-09T10:02:18;100572.28;;;25.85;42.63
70555;BME280;58104;52.744;15.242;2022-09-09T10:04:40;100571.41;;;24.66;45.09
70555;BME280;58104;52.744;15.242;2022-09-09T10:07:10;100574.15;;;24.70;45.45
70555;BME280;58104;52.744;15.242;2022-09-09T10:09:31;100579.17;;;25.27;44.83
70555;BME280;58104;52.744;15.242;2022-09-09T10:12:02;100579.73;;;25.28;45.13
70555;BME280;58104;52.744;15.242;2022-09-09T10:14:24;100574.51;;;25.73;44.58
70555;BME280;58104;52.744;15.242;2022-09-09T10:16:58;100579.58;;;25.36;43.80
70555;BME280;58104;52.744;15.242;2022-09-09T10:19:15;100575.35;;;26.29;43.32
70555;BME280;58104;52.744;15.242;2022-09-09T10:21:51;100576.43;;;26.27;42.89
70555;BME280;58104;52.744;15.242;2022-09-09T10:24:18;100579.95;;;26.17;41.68
70555;BME280;58104;52.744;15.242;2022-09-09T10:26:35;100582.43;;;26.86;41.76
70555;BME280;58104;52.744;15.242;2022-09-09T10:29:04;100584.24;;;27.27;40.84
70555;BME280;58104;52.744;15.242;2022-09-09T10:31:24;100587.28;;;27.19;40.85
70555;BME280;58104;52.744;15.242;2022-09-09T10:33:50;100582.79;;;27.11;40.31
70555;BME280;58104;52.744;15.242;2022-09-09T10:36:13;100586.97;;;27.06;40.91
70555;BME280;58104;52.744;15.242;2022-09-09T10:38:39;100585.69;;;27.68;39.94
70555;BME280;58104;52.744;15.242;2022-09-09T10:41:09;100583.12;;;29.43;36.41
70555;BME280;58104;52.744;15.242;2022-09-09T10:43:37;100582.49;;;31.07;33.38
70555;BME280;58104;52.744;15.242;2022-09-09T10:45:58;100583.49;;;32.11;31.62
70555;BME280;58104;52.744;15.242;2022-09-09T10:48:30;100576.22;;;32.65;30.61
70555;BME280;58104;52.744;15.242;2022-09-09T10:50:49;100578.30;;;32.78;30.50
70555;BME280;58104;52.744;15.242;2022-09-09T10:53:13;100576.65;;;32.91;30.16
70555;BME280;58104;52.744;15.242;2022-09-09T10:55:38;100582.73;;;33.43;29.43
70555;BME280;58104;52.744;15.242;2022-09-09T10:57:59;100579.80;;;33.47;29.16
70555;BME280;58104;52.744;15.242;2022-09-09T11:00:25;100583.12;;;33.61;28.92
70555;BME280;58104;52.744;15.242;2022-09-09T11:02:52;100583.82;;;33.64;28.70
70555;BME280;58104;52.744;15.242;2022-09-09T11:05:18;100580.53;;;33.88;28.44
70555;BME280;58104;52.744;15.242;2022-09-09T11:07:41;100582.90;;;33.77;28.33
70555;BME280;58104;52.744;15.242;2022-09-09T11:10:15;100581.59;;;33.60;28.44
70555;BME280;58104;52.744;15.242;2022-09-09T11:12:31;100580.85;;;33.66;28.50
70555;BME280;58104;52.744;15.242;2022-09-09T11:14:59;100578.08;;;33.40;28.93
70555;BME280;58104;52.744;15.242;2022-09-09T11:17:23;100579.98;;;33.21;29.15
70555;BME280;58104;52.744;15.242;2022-09-09T11:19:46;100576.14;;;33.13;28.92
70555;BME280;58104;52.744;15.242;2022-09-09T11:22:19;100573.73;;;33.21;29.25
70555;BME280;58104;52.744;15.242;2022-09-09T11:24:39;100577.89;;;33.86;28.27
70555;BME280;58104;52.744;15.242;2022-09-09T11:27:08;100580.83;;;34.01;27.83
70555;BME280;58104;52.744;15.242;2022-09-09T11:29:40;100575.66;;;34.14;27.23
70555;BME280;58104;52.744;15.242;2022-09-09T11:32:02;100573.24;;;33.04;28.63
70555;BME280;58104;52.744;15.242;2022-09-09T11:34:27;100575.29;;;33.81;27.61
70555;BME280;58104;52.744;15.242;2022-09-09T11:36:53;100574.84;;;33.64;28.04
70555;BME280;58104;52.744;15.242;2022-09-09T11:41:35;100569.59;;;32.97;28.40
70555;BME280;58104;52.744;15.242;2022-09-09T11:43:59;100567.29;;;31.91;30.05
70555;BME280;58104;52.744;15.242;2022-09-09T11:46:33;100562.08;;;32.68;28.96
70555;BME280;58104;52.744;15.242;2022-09-09T11:48:58;100565.65;;;33.62;27.34
70555;BME280;58104;52.744;15.242;2022-09-09T11:51:25;100562.96;;;33.95;26.66
70555;BME280;58104;52.744;15.242;2022-09-09T11:53:47;100561.26;;;34.12;26.57
70555;BME280;58104;52.744;15.242;2022-09-09T11:56:09;100561.24;;;34.16;26.67
70555;BME280;58104;52.744;15.242;2022-09-09T11:58:38;100560.48;;;33.52;27.42
70555;BME280;58104;52.744;15.242;2022-09-09T12:00:56;100561.53;;;33.38;27.62
70555;BME280;58104;52.744;15.242;2022-09-09T12:05:47;100550.89;;;32.05;29.22
70555;BME280;58104;52.744;15.242;2022-09-09T12:08:18;100548.80;;;31.64;30.24
70555;BME280;58104;52.744;15.242;2022-09-09T12:10:39;100544.97;;;31.51;30.48
70555;BME280;58104;52.744;15.242;2022-09-09T12:13:08;100544.65;;;30.72;32.71
70555;BME280;58104;52.744;15.242;2022-09-09T12:15:29;100538.05;;;29.80;33.80
70555;BME280;58104;52.744;15.242;2022-09-09T12:17:56;100540.79;;;29.01;34.62
70555;BME280;58104;52.744;15.242;2022-09-09T12:20:21;100534.91;;;30.39;32.43
70555;BME280;58104;52.744;15.242;2022-09-09T12:22:53;100536.04;;;31.56;30.66
70555;BME280;58104;52.744;15.242;2022-09-09T12:25:20;100538.98;;;32.62;29.26
70555;BME280;58104;52.744;15.242;2022-09-09T12:27:42;100539.79;;;32.40;29.05
70555;BME280;58104;52.744;15.242;2022-09-09T12:30:04;100536.61;;;30.25;32.28
70555;BME280;58104;52.744;15.242;2022-09-09T12:32:27;100540.68;;;29.52;33.03
70555;BME280;58104;52.744;15.242;2022-09-09T12:34:53;100532.60;;;30.70;31.48
70555;BME280;58104;52.744;15.242;2022-09-09T12:37:24;100535.38;;;30.33;31.67